Time;durP1;ratioP1;P1;durP2;ratioP2;P2;SDS_P1;SDS_P2;PMS_P1;PMS_P2;Temp;Humidity;BMP_temperature;BMP_pressure;BME280_temperature;BME280_humidity;BME280_pressure;Samples;Min_cycle;Max_cycle;Signal;HPM_P1;HPM_P2
2022/12/04 00:00:46;;;;;;;33.63;14.33;;;4.40;99.90;;;;;;5001119;28;20492;-60
2022/12/04 00:03:13;;;;;;;37.57;14.80;;;4.40;99.90;;;;;;5014644;28;20529;-60
2022/12/04 00:05:39;;;;;;;30.07;13.07;;;4.40;99.90;;;;;;5032594;28;21068;-60
2022/12/04 00:08:06;;;;;;;45.07;17.70;;;4.40;99.90;;;;;;5011752;28;20484;-60
2022/12/04 00:10:33;;;;;;;39.80;15.73;;;4.40;99.90;;;;;;5017355;28;20867;-60
2022/12/04 00:13:00;;;;;;;36.30;16.77;;;4.40;99.90;;;;;;5009295;28;20507;-60
2022/12/04 00:15:28;;;;;;;39.53;18.30;;;4.40;99.90;;;;;;5017301;28;20485;-59
2022/12/04 00:17:54;;;;;;;25.00;13.13;;;4.50;99.90;;;;;;5012368;28;20480;-60
2022/12/04 00:20:22;;;;;;;54.10;20.70;;;4.40;99.90;;;;;;5011182;28;20477;-59
2022/12/04 00:22:50;;;;;;;45.60;18.30;;;;;;;;;;5011606;28;20523;-59
2022/12/04 00:25:16;;;;;;;62.13;23.93;;;4.50;99.90;;;;;;5011875;28;20831;-60
2022/12/04 00:27:43;;;;;;;38.90;16.97;;;4.50;99.90;;;;;;5049986;28;20476;-60
2022/12/04 00:30:11;;;;;;;46.00;19.80;;;;;;;;;;5019012;28;20473;-60
2022/12/04 00:32:39;;;;;;;53.27;20.13;;;4.60;99.90;;;;;;5015700;28;20481;-59
2022/12/04 00:35:06;;;;;;;39.20;18.17;;;4.50;99.90;;;;;;5016991;28;20481;-60
2022/12/04 00:37:33;;;;;;;42.90;17.37;;;4.50;99.90;;;;;;5004681;28;20685;-60
2022/12/04 00:40:00;;;;;;;38.40;16.90;;;4.60;99.90;;;;;;5015751;28;21008;-60
2022/12/04 00:42:27;;;;;;;37.23;17.10;;;4.60;99.90;;;;;;5011150;28;20496;-60
2022/12/04 00:44:54;;;;;;;26.17;13.47;;;4.60;99.90;;;;;;5005845;28;20477;-60
2022/12/04 00:47:21;;;;;;;34.80;14.60;;;4.60;99.90;;;;;;5007442;28;20485;-59
2022/12/04 00:49:50;;;;;;;39.07;15.67;;;4.50;99.90;;;;;;5023403;28;20622;-60
2022/12/04 00:52:17;;;;;;;45.83;18.10;;;4.50;99.90;;;;;;5025274;28;20616;-60
2022/12/04 00:54:44;;;;;;;35.60;14.53;;;4.50;99.90;;;;;;5025963;28;20480;-60
2022/12/04 00:57:11;;;;;;;33.20;14.63;;;4.50;99.90;;;;;;5010230;28;20503;-59
2022/12/04 00:59:38;;;;;;;37.57;15.87;;;4.50;99.90;;;;;;5022099;28;20492;-59
2022/12/04 01:02:04;;;;;;;34.50;14.40;;;4.50;99.90;;;;;;5021366;28;20842;-59
2022/12/04 01:04:31;;;;;;;35.83;14.13;;;4.40;99.90;;;;;;5019455;28;20489;-59
2022/12/04 01:06:59;;;;;;;38.10;16.33;;;4.50;99.90;;;;;;5015752;28;20473;-59
2022/12/04 01:09:26;;;;;;;39.93;17.87;;;4.50;99.90;;;;;;5009285;28;21052;-59
2022/12/04 01:11:53;;;;;;;42.73;16.73;;;4.50;99.90;;;;;;5011693;28;20481;-59
2022/12/04 01:14:19;;;;;;;51.33;17.93;;;4.40;99.90;;;;;;5016639;28;20485;-59
2022/12/04 01:16:46;;;;;;;37.60;15.87;;;4.40;99.90;;;;;;5024032;28;20489;-59
2022/12/04 01:19:13;;;;;;;59.80;18.30;;;4.50;99.90;;;;;;5017460;28;20701;-59
2022/12/04 01:21:40;;;;;;;47.43;17.23;;;4.40;99.90;;;;;;5033590;28;20487;-59
2022/12/04 01:24:09;;;;;;;47.73;14.20;;;5.00;99.90;;;;;;5032799;28;20480;-60
2022/12/04 01:26:35;;;;;;;49.27;17.37;;;4.40;99.90;;;;;;5026836;28;20556;-59
2022/12/04 01:29:03;;;;;;;37.43;11.27;;;4.30;99.90;;;;;;5022544;28;20492;-59
2022/12/04 01:31:30;;;;;;;45.03;17.50;;;4.30;99.90;;;;;;5014157;28;20531;-59
2022/12/04 01:33:57;;;;;;;55.57;18.50;;;4.40;99.90;;;;;;5012239;28;20558;-59
2022/12/04 01:36:25;;;;;;;58.23;17.00;;;4.40;99.90;;;;;;5010784;28;20519;-59
2022/12/04 01:38:52;;;;;;;57.43;19.77;;;4.40;99.90;;;;;;5021297;28;20487;-59
2022/12/04 01:41:22;;;;;;;68.07;21.20;;;4.40;99.90;;;;;;5018824;28;20496;-59
2022/12/04 01:44:11;;;;;;;42.23;14.57;;;4.40;99.90;;;;;;5012466;28;20488;-59
2022/12/04 01:46:38;;;;;;;38.73;16.00;;;4.50;99.90;;;;;;5002234;28;20488;-59
2022/12/04 01:49:06;;;;;;;51.07;14.30;;;4.50;99.90;;;;;;5017852;28;20484;-59
2022/12/04 01:51:35;;;;;;;49.50;16.60;;;3.90;99.90;;;;;;5012325;28;20481;-58
2022/12/04 01:54:07;;;;;;;57.63;16.70;;;4.50;99.90;;;;;;5010563;28;20484;-59
2022/12/04 01:56:42;;;;;;;36.27;13.23;;;4.50;99.90;;;;;;5018048;28;20476;-59
2022/12/04 01:59:11;;;;;;;46.80;18.37;;;4.50;99.90;;;;;;5011786;28;20996;-59
2022/12/04 02:01:46;;;;;;;54.67;18.50;;;4.50;99.90;;;;;;5014399;28;20485;-59
2022/12/04 02:04:12;;;;;;;58.90;16.67;;;4.50;99.90;;;;;;5015032;28;20492;-59
2022/12/04 02:06:39;;;;;;;38.17;14.80;;;4.50;99.90;;;;;;5012617;28;20477;-59
2022/12/04 02:09:06;;;;;;;54.00;15.23;;;4.40;99.90;;;;;;5032016;28;20484;-58
2022/12/04 02:11:43;;;;;;;39.60;15.97;;;4.40;99.90;;;;;;5012609;28;20477;-59
2022/12/04 02:14:20;;;;;;;56.20;19.73;;;5.30;99.90;;;;;;5000373;28;21039;-59
2022/12/04 02:16:55;;;;;;;46.23;17.70;;;4.40;99.90;;;;;;5009897;28;20812;-59
2022/12/04 02:19:41;;;;;;;65.97;22.57;;;4.40;99.90;;;;;;5010345;28;21674;-59
2022/12/04 02:22:21;;;;;;;59.60;16.40;;;4.50;99.90;;;;;;5003839;28;20481;-59
2022/12/04 02:24:57;;;;;;;47.20;14.97;;;4.60;99.90;;;;;;5029746;28;21180;-59
2022/12/04 02:27:48;;;;;;;57.13;18.83;;;4.40;99.90;;;;;;5011534;28;20530;-59
2022/12/04 02:30:15;;;;;;;65.17;20.60;;;4.40;99.90;;;;;;5017703;28;20472;-59
2022/12/04 02:32:45;;;;;;;37.57;17.07;;;4.40;99.90;;;;;;5022673;28;20530;-59
2022/12/04 02:35:16;;;;;;;66.93;21.40;;;4.30;99.90;;;;;;5018621;28;20473;-59
2022/12/04 02:37:46;;;;;;;51.83;17.87;;;4.40;99.90;;;;;;5009786;28;20485;-59
2022/12/04 02:40:20;;;;;;;81.83;22.27;;;4.30;99.90;;;;;;5010293;28;20779;-59
2022/12/04 02:42:53;;;;;;;49.23;15.77;;;4.20;99.90;;;;;;5011631;28;20484;-59
2022/12/04 02:45:25;;;;;;;71.00;19.10;;;4.30;99.90;;;;;;5011912;28;20576;-58
2022/12/04 02:47:53;;;;;;;36.53;13.50;;;4.20;99.90;;;;;;5015283;28;20584;-58
2022/12/04 02:50:22;;;;;;;78.40;18.90;;;4.10;99.90;;;;;;5020481;28;20488;-59
2022/12/04 02:52:54;;;;;;;45.17;17.20;;;4.20;99.90;;;;;;5016194;28;20619;-59
2022/12/04 02:55:26;;;;;;;71.43;17.90;;;4.20;99.90;;;;;;5014330;28;20509;-59
2022/12/04 02:58:02;;;;;;;70.47;19.40;;;4.20;99.90;;;;;;5013095;28;20973;-60
2022/12/04 03:00:30;;;;;;;44.40;15.20;;;4.20;99.90;;;;;;5037286;28;21130;-60
2022/12/04 03:03:01;;;;;;;65.87;19.97;;;4.20;99.90;;;;;;5023174;28;20889;-59
2022/12/04 03:05:34;;;;;;;54.93;16.90;;;4.20;99.90;;;;;;5017710;28;20485;-59
2022/12/04 03:08:05;;;;;;;54.37;16.70;;;4.30;99.90;;;;;;4990409;28;20827;-59
2022/12/04 03:10:38;;;;;;;74.93;21.30;;;4.20;99.90;;;;;;5014332;28;20485;-59
2022/12/04 03:13:11;;;;;;;57.63;17.20;;;4.20;99.90;;;;;;5015453;28;20483;-59
2022/12/04 03:15:43;;;;;;;50.23;18.87;;;4.10;99.90;;;;;;5021201;28;21238;-60
2022/12/04 03:18:15;;;;;;;41.20;13.73;;;4.10;99.90;;;;;;5011324;28;20484;-59
2022/12/04 03:20:44;;;;;;;51.80;19.00;;;4.10;99.90;;;;;;5027092;28;20476;-59
2022/12/04 03:23:14;;;;;;;77.73;24.43;;;3.90;99.90;;;;;;5030685;28;20484;-59
2022/12/04 03:25:47;;;;;;;45.80;14.70;;;4.00;99.90;;;;;;5010523;28;20808;-59
2022/12/04 03:28:25;;;;;;;71.13;21.60;;;4.00;99.90;;;;;;5014434;28;20476;-59
2022/12/04 03:30:57;;;;;;;41.40;15.13;;;4.10;99.90;;;;;;5037494;28;20816;-59
2022/12/04 03:33:31;;;;;;;57.97;19.77;;;4.20;99.90;;;;;;5035477;28;20480;-59
2022/12/04 03:36:04;;;;;;;60.30;19.27;;;4.20;99.90;;;;;;5021193;28;21009;-59
2022/12/04 03:38:39;;;;;;;46.37;17.20;;;4.20;99.90;;;;;;5010271;28;20604;-59
2022/12/04 03:41:13;;;;;;;59.97;17.33;;;4.30;99.90;;;;;;5022808;28;20471;-59
2022/12/04 03:43:50;;;;;;;50.27;16.53;;;4.40;99.90;;;;;;5027937;28;20484;-59
2022/12/04 03:46:24;;;;;;;76.87;20.83;;;4.30;99.90;;;;;;5013488;28;20481;-59
2022/12/04 03:48:55;;;;;;;50.93;15.70;;;4.30;99.90;;;;;;5035291;28;20484;-59
2022/12/04 03:51:29;;;;;;;83.40;23.40;;;4.30;99.90;;;;;;5033302;28;20847;-59
2022/12/04 03:54:00;;;;;;;55.00;14.53;;;4.10;99.90;;;;;;5033360;28;20841;-59
2022/12/04 03:56:31;;;;;;;53.80;16.80;;;4.10;99.90;;;;;;5034415;28;20586;-60
2022/12/04 03:59:04;;;;;;;42.73;14.40;;;4.00;99.90;;;;;;5035036;28;20488;-59
2022/12/04 04:01:36;;;;;;;37.73;14.80;;;3.90;99.90;;;;;;5035710;28;20491;-60
2022/12/04 04:04:07;;;;;;;33.53;11.17;;;3.80;99.90;;;;;;5036320;28;20596;-59
2022/12/04 04:06:38;;;;;;;48.80;17.67;;;3.90;99.90;;;;;;5032742;28;20472;-59
2022/12/04 04:09:12;;;;;;;39.73;14.60;;;4.00;99.90;;;;;;5037480;28;20484;-59
2022/12/04 04:11:43;;;;;;;43.77;15.57;;;;;;;;;;5036574;28;20978;-59
2022/12/04 04:25:38;;;;;;;32.27;14.03;;;4.00;99.90;;;;;;5027294;28;20480;-59
2022/12/04 04:28:05;;;;;;;40.60;13.70;;;4.00;99.90;;;;;;5034638;28;20488;-59
2022/12/04 04:30:35;;;;;;;45.40;13.90;;;4.00;99.90;;;;;;5035946;28;20488;-58
2022/12/04 04:33:10;;;;;;;24.17;9.43;;;4.00;99.90;;;;;;5037359;28;20485;-58
2022/12/04 04:35:44;;;;;;;22.80;12.20;;;4.00;99.90;;;;;;5035829;28;20494;-59
2022/12/04 04:38:17;;;;;;;27.93;9.43;;;4.00;99.90;;;;;;5027490;28;20485;-59
2022/12/04 04:40:52;;;;;;;32.27;13.77;;;3.90;99.90;;;;;;5009045;28;20496;-59
2022/12/04 04:43:24;;;;;;;38.67;14.77;;;3.90;99.90;;;;;;5000128;28;20519;-60
2022/12/04 04:45:57;;;;;;;29.23;13.40;;;3.90;99.90;;;;;;5011688;28;20646;-60
2022/12/04 04:48:28;;;;;;;28.73;13.23;;;3.90;99.90;;;;;;5013174;28;21019;-59
2022/12/04 04:50:55;;;;;;;29.23;13.40;;;4.00;99.90;;;;;;5035241;28;20495;-59
2022/12/04 04:53:27;;;;;;;41.70;19.07;;;4.00;99.90;;;;;;5030605;28;20472;-59
2022/12/04 04:55:54;;;;;;;36.70;16.47;;;4.00;99.90;;;;;;5006030;28;20480;-60
2022/12/04 04:58:21;;;;;;;37.00;16.40;;;3.90;99.90;;;;;;5023678;28;20500;-60
2022/12/04 05:00:55;;;;;;;30.17;13.77;;;4.00;99.90;;;;;;5043660;28;20492;-60
2022/12/04 05:03:21;;;;;;;39.93;17.70;;;3.90;99.90;;;;;;5024532;28;20494;-59
2022/12/04 05:05:48;;;;;;;33.53;14.03;;;3.90;99.90;;;;;;5049278;28;21356;-60
2022/12/04 05:08:15;;;;;;;26.33;12.60;;;3.90;99.90;;;;;;5024921;28;21027;-59
2022/12/04 05:10:42;;;;;;;33.70;14.20;;;4.00;99.90;;;;;;5028436;28;20494;-60
2022/12/04 05:13:09;;;;;;;33.13;16.97;;;4.00;99.90;;;;;;5033414;28;20484;-59
2022/12/04 05:15:36;;;;;;;23.23;11.90;;;4.00;99.90;;;;;;5035627;28;21330;-59
2022/12/04 05:18:04;;;;;;;42.03;14.67;;;4.00;99.90;;;;;;5035601;28;20486;-59
2022/12/04 05:20:31;;;;;;;19.57;9.53;;;3.90;99.90;;;;;;5035157;28;20488;-60
2022/12/04 05:22:57;;;;;;;20.00;10.97;;;3.90;99.90;;;;;;5036435;28;20487;-59
2022/12/04 05:25:25;;;;;;;32.60;13.50;;;3.90;99.90;;;;;;5029086;28;20491;-59
2022/12/04 05:27:51;;;;;;;23.30;12.27;;;3.90;99.90;;;;;;5034289;28;20488;-59
2022/12/04 05:30:18;;;;;;;41.97;19.30;;;3.90;99.90;;;;;;5030886;28;20475;-59
2022/12/04 05:32:45;;;;;;;33.87;13.07;;;3.90;99.90;;;;;;5036092;28;20767;-60
2022/12/04 05:35:13;;;;;;;36.33;18.00;;;3.90;99.90;;;;;;5035319;28;20496;-59
2022/12/04 05:37:40;;;;;;;16.63;9.03;;;3.90;99.90;;;;;;5033675;28;20491;-59
2022/12/04 05:40:08;;;;;;;33.50;12.40;;;3.70;99.90;;;;;;5034623;28;21083;-59
2022/12/04 05:42:35;;;;;;;31.23;14.50;;;3.80;99.90;;;;;;5035626;28;20519;-59
2022/12/04 05:45:02;;;;;;;26.03;11.80;;;3.80;99.90;;;;;;5033281;28;20503;-59
2022/12/04 05:47:28;;;;;;;25.37;11.87;;;3.80;99.90;;;;;;5032185;28;20480;-59
2022/12/04 05:49:55;;;;;;;27.40;13.33;;;3.80;99.90;;;;;;5035691;28;20483;-59
2022/12/04 05:52:23;;;;;;;37.43;17.40;;;3.70;99.90;;;;;;5034809;28;20828;-59
2022/12/04 05:54:50;;;;;;;28.63;10.77;;;3.80;99.90;;;;;;5034630;28;20475;-60
2022/12/04 05:57:16;;;;;;;51.20;18.50;;;3.80;99.90;;;;;;5032950;28;20976;-59
2022/12/04 05:59:43;;;;;;;20.80;11.23;;;3.80;99.90;;;;;;5031286;28;20484;-60
2022/12/04 06:02:10;;;;;;;32.77;14.60;;;3.70;99.90;;;;;;5035144;28;20996;-59
2022/12/04 06:04:37;;;;;;;19.77;9.30;;;3.70;99.90;;;;;;5034929;28;20472;-58
2022/12/04 06:07:04;;;;;;;23.30;10.73;;;3.70;99.90;;;;;;5034379;28;20820;-59
2022/12/04 06:09:32;;;;;;;34.70;12.30;;;3.70;99.90;;;;;;5035235;28;20850;-59
2022/12/04 06:11:59;;;;;;;28.00;14.10;;;3.70;99.90;;;;;;5035790;28;20560;-59
2022/12/04 06:14:26;;;;;;;18.73;9.53;;;3.80;99.90;;;;;;5038919;28;20485;-60
2022/12/04 06:16:53;;;;;;;34.10;13.40;;;3.70;99.90;;;;;;5028553;28;20478;-59
2022/12/04 06:19:21;;;;;;;33.93;14.53;;;3.60;99.90;;;;;;5042052;28;20488;-60
2022/12/04 06:21:49;;;;;;;34.37;14.43;;;3.70;99.90;;;;;;5034589;28;20504;-59
2022/12/04 06:24:18;;;;;;;41.83;14.57;;;3.70;99.90;;;;;;5033968;28;21103;-59
2022/12/04 06:26:46;;;;;;;26.10;12.03;;;3.70;99.90;;;;;;5032426;28;20496;-59
2022/12/04 06:29:14;;;;;;;33.33;15.47;;;3.80;99.90;;;;;;5034070;28;20468;-59
2022/12/04 06:31:42;;;;;;;24.00;11.67;;;5.60;99.90;;;;;;5033424;28;20477;-60
2022/12/04 06:34:10;;;;;;;22.50;11.33;;;3.80;99.90;;;;;;5032716;28;20476;-59
2022/12/04 06:36:37;;;;;;;14.30;8.70;;;3.70;99.90;;;;;;5028528;28;20514;-59
2022/12/04 06:39:04;;;;;;;22.10;11.20;;;3.80;99.90;;;;;;5034754;28;20490;-60
2022/12/04 06:41:31;;;;;;;24.70;10.90;;;3.70;99.90;;;;;;5033287;28;20465;-60
2022/12/04 06:43:59;;;;;;;30.60;13.57;;;3.70;99.90;;;;;;5032217;28;20487;-60
2022/12/04 06:46:28;;;;;;;25.50;12.43;;;3.70;99.90;;;;;;5030769;28;20487;-60
2022/12/04 06:48:56;;;;;;;28.53;12.53;;;3.60;99.90;;;;;;5034719;28;20491;-60
2022/12/04 06:51:24;;;;;;;36.83;15.17;;;3.60;99.90;;;;;;5033724;28;21023;-60
2022/12/04 06:53:52;;;;;;;30.40;12.90;;;3.50;99.90;;;;;;5033600;28;20827;-59
2022/12/04 06:56:20;;;;;;;38.13;17.10;;;3.60;99.90;;;;;;5032272;28;20501;-60
2022/12/04 06:58:48;;;;;;;42.50;12.47;;;3.60;99.90;;;;;;5034275;28;20476;-60
2022/12/04 07:01:20;;;;;;;24.83;12.00;;;3.60;99.90;;;;;;5032597;28;20471;-59
2022/12/04 07:03:47;;;;;;;34.47;14.43;;;3.60;99.90;;;;;;5032738;28;20489;-60
2022/12/04 07:06:16;;;;;;;25.33;10.13;;;3.50;99.90;;;;;;5032446;28;20560;-59
2022/12/04 07:08:44;;;;;;;23.17;10.37;;;3.50;99.90;;;;;;5033756;28;20507;-59
2022/12/04 07:11:10;;;;;;;28.83;13.80;;;3.50;99.90;;;;;;5033129;28;20968;-58
2022/12/04 07:13:37;;;;;;;34.07;10.97;;;3.50;99.90;;;;;;5033797;28;20488;-60
2022/12/04 07:16:07;;;;;;;26.53;11.40;;;3.60;99.90;;;;;;5032659;28;20485;-59
2022/12/04 07:18:36;;;;;;;22.83;11.63;;;3.60;99.90;;;;;;5029695;28;21174;-60
2022/12/04 07:21:06;;;;;;;26.47;12.10;;;3.60;99.90;;;;;;5034895;28;20484;-59
2022/12/04 07:23:33;;;;;;;30.13;13.20;;;3.70;99.90;;;;;;5033383;28;20567;-59
2022/12/04 07:26:04;;;;;;;38.17;16.70;;;3.70;99.90;;;;;;5032672;28;20495;-59
2022/12/04 07:28:31;;;;;;;18.93;9.70;;;3.70;99.90;;;;;;5034434;28;20814;-59
2022/12/04 07:30:57;;;;;;;30.33;13.17;;;3.60;99.90;;;;;;5033734;28;20484;-59
2022/12/04 07:33:24;;;;;;;34.23;15.67;;;3.60;99.90;;;;;;5033566;28;20485;-59
2022/12/04 07:35:56;;;;;;;27.70;10.90;;;3.70;99.90;;;;;;5035428;28;20476;-59
2022/12/04 07:38:23;;;;;;;35.13;14.70;;;3.70;99.90;;;;;;5035787;28;20836;-59
2022/12/04 07:40:50;;;;;;;53.00;13.50;;;3.70;99.90;;;;;;5037592;28;20492;-59
2022/12/04 07:43:17;;;;;;;53.97;18.87;;;3.70;99.90;;;;;;5035736;28;20891;-60
2022/12/04 07:45:43;;;;;;;40.70;18.10;;;3.70;99.90;;;;;;5036025;28;20687;-60
2022/12/04 07:48:10;;;;;;;32.07;11.87;;;3.70;99.90;;;;;;5025127;28;20893;-60
2022/12/04 07:50:37;;;;;;;27.50;11.83;;;3.70;99.90;;;;;;5035379;28;20499;-60
2022/12/04 07:53:05;;;;;;;26.50;12.40;;;3.60;99.90;;;;;;5035347;28;20480;-60
2022/12/04 07:55:31;;;;;;;18.03;8.37;;;3.70;99.90;;;;;;5037712;28;20937;-60
2022/12/04 07:57:58;;;;;;;22.83;10.73;;;3.60;99.90;;;;;;5032730;28;20484;-60
2022/12/04 08:00:25;;;;;;;31.60;13.07;;;3.60;99.90;;;;;;5038515;28;20483;-59
2022/12/04 08:02:52;;;;;;;27.90;12.30;;;2.30;99.90;;;;;;5040175;28;20475;-59
2022/12/04 08:05:18;;;;;;;49.43;18.43;;;3.60;99.90;;;;;;5036003;28;20809;-60
2022/12/04 08:07:45;;;;;;;31.70;13.90;;;3.70;99.90;;;;;;5014858;28;20492;-59
2022/12/04 08:10:14;;;;;;;37.60;16.30;;;3.80;99.90;;;;;;5013030;28;20618;-60
2022/12/04 08:12:40;;;;;;;28.07;13.63;;;3.80;99.90;;;;;;5015893;28;20504;-59
2022/12/04 08:15:08;;;;;;;33.07;10.93;;;3.80;99.90;;;;;;5047039;28;20676;-60
2022/12/04 08:17:38;;;;;;;41.03;13.07;;;3.80;99.90;;;;;;5027289;28;20503;-60
2022/12/04 08:20:06;;;;;;;29.43;12.97;;;3.80;99.90;;;;;;5031985;28;20511;-59
2022/12/04 08:22:32;;;;;;;31.43;13.40;;;3.80;99.90;;;;;;5030017;28;20754;-59
2022/12/04 08:24:59;;;;;;;40.47;13.73;;;3.80;99.90;;;;;;5032745;28;20491;-59
2022/12/04 08:27:29;;;;;;;30.43;15.27;;;3.90;99.90;;;;;;5033567;28;20484;-59
2022/12/04 08:29:55;;;;;;;29.77;12.20;;;3.90;99.90;;;;;;5036972;28;20491;-59
2022/12/04 08:32:22;;;;;;;40.23;14.57;;;3.80;99.90;;;;;;5036097;28;20921;-59
2022/12/04 08:34:50;;;;;;;32.53;12.37;;;3.80;99.90;;;;;;5037491;28;20477;-60
2022/12/04 08:37:17;;;;;;;38.57;13.93;;;3.80;99.90;;;;;;5033610;28;21238;-60
2022/12/04 08:39:44;;;;;;;34.33;12.90;;;3.80;99.90;;;;;;5035618;28;20480;-59
2022/12/04 08:42:10;;;;;;;44.20;16.23;;;3.80;99.90;;;;;;5036802;28;20483;-59
2022/12/04 08:44:38;;;;;;;24.27;12.17;;;3.80;99.90;;;;;;5035884;28;20506;-60
2022/12/04 08:47:05;;;;;;;36.07;13.77;;;3.80;99.90;;;;;;5034752;28;20964;-59
2022/12/04 08:49:32;;;;;;;22.30;8.70;;;4.00;99.90;;;;;;5036772;28;20836;-59
2022/12/04 08:51:59;;;;;;;33.50;14.20;;;3.90;99.90;;;;;;5023193;28;20496;-59
2022/12/04 08:54:25;;;;;;;35.33;12.57;;;3.90;99.90;;;;;;5016304;28;20520;-59
2022/12/04 08:56:52;;;;;;;31.43;13.97;;;;;;;;;;5021007;28;20481;-59
2022/12/04 08:59:19;;;;;;;53.27;19.80;;;4.00;99.90;;;;;;5014812;28;20481;-59
2022/12/04 09:01:50;;;;;;;36.30;15.10;;;4.00;99.90;;;;;;5016065;28;20481;-59
2022/12/04 09:04:17;;;;;;;50.63;19.60;;;4.00;99.90;;;;;;5012708;28;21044;-59
2022/12/04 09:06:43;;;;;;;35.50;15.17;;;4.00;99.90;;;;;;5013308;28;21017;-59
2022/12/04 09:09:11;;;;;;;43.13;16.57;;;4.10;99.90;;;;;;5017522;28;20833;-58
2022/12/04 09:11:38;;;;;;;30.10;15.10;;;4.10;99.90;;;;;;5023253;28;20855;-59
2022/12/04 09:14:05;;;;;;;32.33;14.70;;;4.10;99.90;;;;;;5031564;28;20496;-59
2022/12/04 09:16:32;;;;;;;40.10;15.40;;;4.10;99.90;;;;;;5038442;28;20491;-60
2022/12/04 09:19:00;;;;;;;36.60;13.87;;;4.10;99.90;;;;;;5022324;28;20992;-60
2022/12/04 09:21:27;;;;;;;16.90;8.90;;;4.10;99.90;;;;;;5032739;28;20788;-59
2022/12/04 09:23:54;;;;;;;34.13;14.57;;;4.10;99.90;;;;;;5024240;28;20497;-59
2022/12/04 09:26:24;;;;;;;51.93;20.10;;;4.10;99.90;;;;;;5019876;28;20481;-59
2022/12/04 09:28:52;;;;;;;39.47;15.53;;;4.20;99.90;;;;;;5028693;28;20484;-59
2022/12/04 09:31:20;;;;;;;50.17;18.80;;;4.20;99.90;;;;;;5031312;28;20464;-60
2022/12/04 09:33:46;;;;;;;44.37;18.70;;;4.30;99.90;;;;;;5035132;28;20476;-59
2022/12/04 09:36:15;;;;;;;54.60;21.27;;;4.30;99.90;;;;;;5030691;28;20481;-59
2022/12/04 09:38:43;;;;;;;32.53;14.60;;;4.30;99.90;;;;;;5022557;28;20497;-59
2022/12/04 09:41:36;;;;;;;40.37;16.90;;;4.30;99.90;;;;;;5015267;28;20576;-59
2022/12/04 09:44:06;;;;;;;25.27;12.40;;;4.40;99.90;;;;;;5021410;28;21099;-59
2022/12/04 09:46:36;;;;;;;42.27;15.97;;;4.30;99.90;;;;;;5018848;28;20488;-59
2022/12/04 09:49:09;;;;;;;40.30;15.50;;;4.40;99.90;;;;;;5032269;28;20511;-60
2022/12/04 09:51:40;;;;;;;38.77;14.90;;;4.40;99.90;;;;;;5035334;28;20495;-59
2022/12/04 09:54:13;;;;;;;37.57;16.37;;;4.30;99.90;;;;;;5032515;28;20473;-59
2022/12/04 09:56:40;;;;;;;40.83;15.10;;;4.30;99.90;;;;;;5032882;28;20571;-60
2022/12/04 09:59:14;;;;;;;34.83;15.33;;;4.30;99.90;;;;;;5034532;28;20489;-59
2022/12/04 10:01:50;;;;;;;38.83;15.03;;;4.40;99.90;;;;;;5035713;28;20476;-59
2022/12/04 10:04:18;;;;;;;47.77;20.13;;;4.40;99.90;;;;;;5034988;28;20626;-59
2022/12/04 10:06:52;;;;;;;35.20;15.90;;;4.40;99.90;;;;;;5028672;28;20942;-59
2022/12/04 10:09:22;;;;;;;41.70;16.30;;;4.40;99.90;;;;;;5035334;28;20951;-59
2022/12/04 10:12:02;;;;;;;29.60;14.57;;;4.40;99.90;;;;;;5035489;28;20483;-60
2022/12/04 10:14:46;;;;;;;38.33;17.07;;;4.40;99.90;;;;;;5022309;28;20473;-59
2022/12/04 10:17:27;;;;;;;40.57;16.27;;;4.40;99.90;;;;;;5016342;28;20491;-59
2022/12/04 10:20:02;;;;;;;37.50;16.87;;;4.40;99.90;;;;;;5036168;28;20507;-60
2022/12/04 10:22:42;;;;;;;47.50;15.00;;;4.50;99.90;;;;;;5009495;28;20507;-59
2022/12/04 10:25:14;;;;;;;36.30;15.60;;;4.40;99.90;;;;;;5029788;28;20480;-60
2022/12/04 10:27:43;;;;;;;32.97;13.37;;;4.50;99.90;;;;;;5015341;28;20485;-59
2022/12/04 10:30:16;;;;;;;37.23;15.50;;;4.40;99.90;;;;;;5013346;28;20893;-59
2022/12/04 10:32:45;;;;;;;32.90;14.23;;;4.40;99.90;;;;;;5012945;28;20485;-59
2022/12/04 10:35:20;;;;;;;45.83;17.43;;;4.40;99.90;;;;;;5015497;28;20499;-59
2022/12/04 10:37:53;;;;;;;35.10;15.70;;;4.50;99.90;;;;;;5014209;28;20727;-59
2022/12/04 10:40:24;;;;;;;44.00;17.33;;;4.40;99.90;;;;;;5013345;28;20496;-59
2022/12/04 10:42:55;;;;;;;36.60;15.27;;;4.40;99.90;;;;;;5013788;28;21004;-59
2022/12/04 10:45:22;;;;;;;51.97;19.80;;;4.40;99.90;;;;;;5026744;28;20468;-59
2022/12/04 10:47:52;;;;;;;39.73;13.67;;;4.50;99.90;;;;;;5033866;28;20485;-59
2022/12/04 10:50:21;;;;;;;39.07;16.67;;;4.50;99.90;;;;;;5034618;28;20480;-59
2022/12/04 10:52:50;;;;;;;29.27;13.93;;;;;;;;;;5031084;28;20495;-60
2022/12/04 10:55:28;;;;;;;44.70;18.63;;;4.50;99.90;;;;;;5032732;28;21039;-60
2022/12/04 10:57:55;;;;;;;44.77;16.83;;;4.60;99.90;;;;;;5033896;28;20468;-60
2022/12/04 11:00:28;;;;;;;51.77;18.97;;;4.60;99.90;;;;;;5034047;28;20483;-61
2022/12/04 11:02:58;;;;;;;26.37;13.20;;;4.60;99.90;;;;;;5019247;28;20477;-60
2022/12/04 11:05:29;;;;;;;33.60;15.10;;;4.70;99.90;;;;;;5013795;28;20477;-60
2022/12/04 11:07:58;;;;;;;32.30;14.80;;;4.70;99.90;;;;;;5012011;28;20504;-59
2022/12/04 11:10:31;;;;;;;33.47;14.70;;;4.70;99.90;;;;;;5010287;28;20831;-60
2022/12/04 11:13:01;;;;;;;34.43;13.07;;;4.70;99.90;;;;;;5017537;28;20481;-59
2022/12/04 11:15:29;;;;;;;27.47;12.70;;;4.70;99.90;;;;;;5018370;28;20908;-60
2022/12/04 11:18:06;;;;;;;28.40;14.10;;;4.80;99.90;;;;;;5016701;28;20485;-59
2022/12/04 11:20:33;;;;;;;31.53;14.20;;;4.90;99.90;;;;;;5005733;28;20476;-59
2022/12/04 11:23:02;;;;;;;28.80;13.07;;;4.90;99.90;;;;;;5036403;28;20803;-60
2022/12/04 11:25:35;;;;;;;23.90;12.20;;;4.80;99.90;;;;;;5032726;28;20479;-60
2022/12/04 11:28:03;;;;;;;39.00;16.90;;;4.80;99.90;;;;;;5014717;28;20472;-60
2022/12/04 11:30:34;;;;;;;23.53;12.23;;;4.80;99.90;;;;;;5034410;28;20764;-60
2022/12/04 11:33:01;;;;;;;31.57;13.23;;;4.80;99.90;;;;;;5025597;28;20517;-60
2022/12/04 11:35:30;;;;;;;29.50;14.97;;;4.90;99.90;;;;;;5033384;28;21081;-60
2022/12/04 11:38:00;;;;;;;35.43;14.53;;;4.90;99.90;;;;;;5037256;28;20484;-60
2022/12/04 11:40:29;;;;;;;35.43;14.60;;;4.90;99.90;;;;;;5032980;28;20699;-60
2022/12/04 11:43:04;;;;;;;33.03;13.73;;;4.90;99.90;;;;;;5038069;28;20908;-60
2022/12/04 11:45:31;;;;;;;29.90;13.97;;;4.90;99.90;;;;;;5036137;28;20498;-59
2022/12/04 11:48:00;;;;;;;33.83;14.83;;;4.90;99.90;;;;;;5034713;28;20484;-60
2022/12/04 11:50:37;;;;;;;31.17;14.20;;;5.00;99.90;;;;;;5037308;28;20889;-60
2022/12/04 11:53:14;;;;;;;26.83;11.57;;;4.90;99.90;;;;;;5026834;28;20484;-60
2022/12/04 11:55:55;;;;;;;30.17;14.53;;;4.90;99.90;;;;;;5025255;28;20480;-60
2022/12/04 11:58:47;;;;;;;40.67;16.63;;;4.80;99.90;;;;;;5017592;28;20867;-60
2022/12/04 12:01:23;;;;;;;32.47;14.83;;;4.80;99.90;;;;;;5032636;28;20952;-60
2022/12/04 12:04:05;;;;;;;31.17;14.37;;;4.80;99.90;;;;;;5036784;28;20499;-60
2022/12/04 12:06:36;;;;;;;27.53;12.23;;;4.80;99.90;;;;;;5031694;28;20490;-61
2022/12/04 12:09:22;;;;;;;23.50;10.97;;;4.90;99.90;;;;;;5026450;28;20475;-60
2022/12/04 12:11:56;;;;;;;33.23;11.50;;;4.80;99.90;;;;;;5034185;28;20477;-60
2022/12/04 12:14:32;;;;;;;31.63;13.63;;;4.80;99.90;;;;;;5037212;28;21272;-60
2022/12/04 12:17:09;;;;;;;27.10;11.73;;;4.70;99.90;;;;;;5031378;28;21008;-60
2022/12/04 12:19:50;;;;;;;26.10;13.03;;;4.80;99.90;;;;;;5024943;28;20689;-60
2022/12/04 12:22:26;;;;;;;36.30;13.27;;;4.80;99.90;;;;;;5023640;28;20834;-60
2022/12/04 12:25:04;;;;;;;32.23;13.03;;;4.90;99.90;;;;;;5037184;28;20473;-60
2022/12/04 12:27:46;;;;;;;28.63;12.23;;;4.90;99.90;;;;;;5014580;28;20896;-60
2022/12/04 12:30:17;;;;;;;40.63;17.93;;;5.00;99.90;;;;;;5016019;28;20571;-61
2022/12/04 12:33:08;;;;;;;49.73;13.97;;;5.10;99.90;;;;;;5017259;28;20497;-61
2022/12/04 12:35:41;;;;;;;25.77;12.90;;;5.10;99.90;;;;;;5021214;28;20876;-60
2022/12/04 12:38:14;;;;;;;36.07;13.60;;;5.10;99.90;;;;;;5024673;28;20480;-60
2022/12/04 12:40:44;;;;;;;25.93;13.40;;;5.10;99.90;;;;;;5036724;28;20484;-60
2022/12/04 12:43:16;;;;;;;46.23;13.03;;;5.20;99.90;;;;;;5035924;28;20487;-61
2022/12/04 12:45:49;;;;;;;25.00;13.57;;;5.20;99.90;;;;;;5032540;28;20480;-61
2022/12/04 12:48:26;;;;;;;40.00;17.13;;;5.30;99.90;;;;;;5035272;28;20886;-60
2022/12/04 12:50:59;;;;;;;27.37;13.40;;;5.40;99.90;;;;;;5029755;28;20597;-60
2022/12/04 12:53:32;;;;;;;32.60;14.70;;;5.40;99.90;;;;;;5036487;28;20496;-60
2022/12/04 12:56:02;;;;;;;45.97;18.50;;;5.40;99.90;;;;;;5034708;28;20467;-60
2022/12/04 12:58:37;;;;;;;30.47;14.23;;;5.40;99.90;;;;;;5034962;28;20491;-60
2022/12/04 13:01:10;;;;;;;26.30;13.97;;;5.40;99.90;;;;;;5035314;28;20557;-60
2022/12/04 13:03:44;;;;;;;24.60;11.60;;;5.30;99.90;;;;;;5033182;28;20487;-60